sensor_id;sensor_type;location;lat;lon;timestamp;temperature;humidity
19680;DHT22;9989;48.962;9.182;2023-02-26T00:01:25;3.00;99.90
19680;DHT22;9989;48.962;9.182;2023-02-26T00:03:53;3.00;99.90
19680;DHT22;9989;48.962;9.182;2023-02-26T00:06:19;2.90;99.90
19680;DHT22;9989;48.962;9.182;2023-02-26T00:08:44;2.90;99.90
19680;DHT22;9989;48.962;9.182;2023-02-26T00:11:11;2.90;99.90
19680;DHT22;9989;48.962;9.182;2023-02-26T00:13:39;2.90;99.90
19680;DHT22;9989;48.962;9.182;2023-02-26T00:16:31;2.80;99.90
19680;DHT22;9989;48.962;9.182;2023-02-26T00:18:57;2.80;99.90
19680;DHT22;9989;48.962;9.182;2023-02-26T00:21:24;2.80;99.90
19680;DHT22;9989;48.962;9.182;2023-02-26T00:23:51;2.80;99.90
19680;DHT22;9989;48.962;9.182;2023-02-26T00:26:16;2.70;99.90
19680;DHT22;9989;48.962;9.182;2023-02-26T00:28:42;2.70;99.90
19680;DHT22;9989;48.962;9.182;2023-02-26T00:31:08;2.70;99.90
19680;DHT22;9989;48.962;9.182;2023-02-26T00:33:35;2.70;99.90
19680;DHT22;9989;48.962;9.182;2023-02-26T00:36:21;2.60;99.90
19680;DHT22;9989;48.962;9.182;2023-02-26T00:39:05;2.60;99.90
19680;DHT22;9989;48.962;9.182;2023-02-26T00:41:32;2.50;99.90
19680;DHT22;9989;48.962;9.182;2023-02-26T00:43:58;2.50;99.90
19680;DHT22;9989;48.962;9.182;2023-02-26T00:46:35;2.50;99.90
19680;DHT22;9989;48.962;9.182;2023-02-26T00:52:00;2.40;99.90
19680;DHT22;9989;48.962;9.182;2023-02-26T00:54:28;2.40;99.90
19680;DHT22;9989;48.962;9.182;2023-02-26T00:56:56;2.40;99.90
19680;DHT22;9989;48.962;9.182;2023-02-26T00:59:22;2.40;99.90
19680;DHT22;9989;48.962;9.182;2023-02-26T01:01:48;2.40;99.90
19680;DHT22;9989;48.962;9.182;2023-02-26T01:04:16;2.40;99.90
19680;DHT22;9989;48.962;9.182;2023-02-26T01:06:48;2.40;99.90
19680;DHT22;9989;48.962;9.182;2023-02-26T01:09:24;2.40;99.90
19680;DHT22;9989;48.962;9.182;2023-02-26T01:11:51;2.30;99.90
19680;DHT22;9989;48.962;9.182;2023-02-26T01:14:18;2.30;99.90
19680;DHT22;9989;48.962;9.182;2023-02-26T01:17:01;2.30;99.90
19680;DHT22;9989;48.962;9.182;2023-02-26T01:19:40;2.20;99.90
19680;DHT22;9989;48.962;9.182;2023-02-26T01:22:27;2.20;99.90
19680;DHT22;9989;48.962;9.182;2023-02-26T01:28:02;2.20;99.90
19680;DHT22;9989;48.962;9.182;2023-02-26T01:30:28;2.10;99.90
19680;DHT22;9989;48.962;9.182;2023-02-26T01:35:52;2.10;99.90
19680;DHT22;9989;48.962;9.182;2023-02-26T01:38:39;2.00;99.90
19680;DHT22;9989;48.962;9.182;2023-02-26T01:41:18;2.00;99.90
19680;DHT22;9989;48.962;9.182;2023-02-26T01:43:55;2.00;99.90
19680;DHT22;9989;48.962;9.182;2023-02-26T01:49:21;1.90;99.90
19680;DHT22;9989;48.962;9.182;2023-02-26T01:52:01;1.80;99.90
19680;DHT22;9989;48.962;9.182;2023-02-26T01:54:33;1.80;99.90
19680;DHT22;9989;48.962;9.182;2023-02-26T01:57:08;1.80;99.90
19680;DHT22;9989;48.962;9.182;2023-02-26T01:59:41;1.80;99.90
19680;DHT22;9989;48.962;9.182;2023-02-26T02:02:09;1.80;99.90
19680;DHT22;9989;48.962;9.182;2023-02-26T02:04:36;1.80;99.90
19680;DHT22;9989;48.962;9.182;2023-02-26T02:07:03;1.80;99.90
19680;DHT22;9989;48.962;9.182;2023-02-26T02:09:29;1.80;99.90
19680;DHT22;9989;48.962;9.182;2023-02-26T02:20:22;1.90;99.90
19680;DHT22;9989;48.962;9.182;2023-02-26T02:28:09;1.80;99.90
19680;DHT22;9989;48.962;9.182;2023-02-26T02:30:53;1.80;99.90
19680;DHT22;9989;48.962;9.182;2023-02-26T02:33:22;1.80;99.90
19680;DHT22;9989;48.962;9.182;2023-02-26T02:35:54;1.80;99.90
19680;DHT22;9989;48.962;9.182;2023-02-26T02:38:29;1.70;99.90
19680;DHT22;9989;48.962;9.182;2023-02-26T02:41:07;1.70;99.90
19680;DHT22;9989;48.962;9.182;2023-02-26T02:43:35;1.70;99.90
19680;DHT22;9989;48.962;9.182;2023-02-26T02:46:29;1.60;99.90
19680;DHT22;9989;48.962;9.182;2023-02-26T02:49:02;1.60;99.90
19680;DHT22;9989;48.962;9.182;2023-02-26T02:51:35;1.60;99.90
19680;DHT22;9989;48.962;9.182;2023-02-26T02:54:23;1.60;99.90
19680;DHT22;9989;48.962;9.182;2023-02-26T02:57:00;1.60;99.90
19680;DHT22;9989;48.962;9.182;2023-02-26T02:59:29;1.60;99.90
19680;DHT22;9989;48.962;9.182;2023-02-26T03:02:10;1.60;99.90
19680;DHT22;9989;48.962;9.182;2023-02-26T03:04:38;1.50;99.90
19680;DHT22;9989;48.962;9.182;2023-02-26T03:07:04;1.60;99.90
19680;DHT22;9989;48.962;9.182;2023-02-26T03:09:30;1.60;99.90
19680;DHT22;9989;48.962;9.182;2023-02-26T03:11:55;1.50;99.90
19680;DHT22;9989;48.962;9.182;2023-02-26T03:14:21;1.50;99.90
19680;DHT22;9989;48.962;9.182;2023-02-26T03:22:15;1.40;99.90
19680;DHT22;9989;48.962;9.182;2023-02-26T03:24:55;1.40;99.90
19680;DHT22;9989;48.962;9.182;2023-02-26T03:30:10;1.30;99.90
19680;DHT22;9989;48.962;9.182;2023-02-26T03:33:05;1.30;99.90
19680;DHT22;9989;48.962;9.182;2023-02-26T03:38:02;1.30;99.90
19680;DHT22;9989;48.962;9.182;2023-02-26T03:40:43;1.20;99.90
19680;DHT22;9989;48.962;9.182;2023-02-26T03:43:19;1.30;99.90
19680;DHT22;9989;48.962;9.182;2023-02-26T03:45:49;1.20;99.90
19680;DHT22;9989;48.962;9.182;2023-02-26T03:48:18;1.20;99.90
19680;DHT22;9989;48.962;9.182;2023-02-26T03:50:50;1.20;99.90
19680;DHT22;9989;48.962;9.182;2023-02-26T03:53:22;1.20;99.90
19680;DHT22;9989;48.962;9.182;2023-02-26T03:58:33;1.20;99.90
19680;DHT22;9989;48.962;9.182;2023-02-26T04:01:05;1.10;99.90
19680;DHT22;9989;48.962;9.182;2023-02-26T04:03:44;1.10;99.90
19680;DHT22;9989;48.962;9.182;2023-02-26T04:06:12;1.10;99.90
19680;DHT22;9989;48.962;9.182;2023-02-26T04:08:38;1.10;99.90
19680;DHT22;9989;48.962;9.182;2023-02-26T04:11:11;1.10;99.90
19680;DHT22;9989;48.962;9.182;2023-02-26T04:13:38;1.10;99.90
19680;DHT22;9989;48.962;9.182;2023-02-26T04:16:04;1.00;99.90
19680;DHT22;9989;48.962;9.182;2023-02-26T04:18:29;1.00;99.90
19680;DHT22;9989;48.962;9.182;2023-02-26T04:20:55;1.00;99.90
19680;DHT22;9989;48.962;9.182;2023-02-26T04:23:21;1.00;99.90
19680;DHT22;9989;48.962;9.182;2023-02-26T04:25:46;1.00;99.90
19680;DHT22;9989;48.962;9.182;2023-02-26T04:28:12;1.00;99.90
19680;DHT22;9989;48.962;9.182;2023-02-26T04:30:37;1.00;99.90
19680;DHT22;9989;48.962;9.182;2023-02-26T04:33:03;1.00;99.90
19680;DHT22;9989;48.962;9.182;2023-02-26T04:35:29;1.00;99.90
19680;DHT22;9989;48.962;9.182;2023-02-26T04:37:54;1.00;99.90
19680;DHT22;9989;48.962;9.182;2023-02-26T04:40:20;1.00;99.90
19680;DHT22;9989;48.962;9.182;2023-02-26T04:42:48;1.00;99.90
19680;DHT22;9989;48.962;9.182;2023-02-26T04:45:13;1.00;99.90
19680;DHT22;9989;48.962;9.182;2023-02-26T04:47:39;1.00;99.90
19680;DHT22;9989;48.962;9.182;2023-02-26T04:50:05;1.00;99.90
19680;DHT22;9989;48.962;9.182;2023-02-26T04:52:31;0.90;99.90
19680;DHT22;9989;48.962;9.182;2023-02-26T04:54:56;0.90;99.90
19680;DHT22;9989;48.962;9.182;2023-02-26T04:57:22;0.90;99.90
19680;DHT22;9989;48.962;9.182;2023-02-26T04:59:48;0.90;99.90
19680;DHT22;9989;48.962;9.182;2023-02-26T05:02:13;0.90;99.90
19680;DHT22;9989;48.962;9.182;2023-02-26T05:04:39;0.80;99.90
19680;DHT22;9989;48.962;9.182;2023-02-26T05:07:05;0.80;99.90
19680;DHT22;9989;48.962;9.182;2023-02-26T05:09:31;0.70;99.90
19680;DHT22;9989;48.962;9.182;2023-02-26T05:11:56;0.70;99.90
19680;DHT22;9989;48.962;9.182;2023-02-26T05:14:22;0.70;99.90
19680;DHT22;9989;48.962;9.182;2023-02-26T05:16:47;0.70;99.90
19680;DHT22;9989;48.962;9.182;2023-02-26T05:19:13;0.60;99.90
19680;DHT22;9989;48.962;9.182;2023-02-26T05:21:39;0.70;99.90
19680;DHT22;9989;48.962;9.182;2023-02-26T05:24:04;0.70;99.90
19680;DHT22;9989;48.962;9.182;2023-02-26T05:26:30;0.70;99.90
19680;DHT22;9989;48.962;9.182;2023-02-26T05:28:56;0.70;99.90
19680;DHT22;9989;48.962;9.182;2023-02-26T05:31:21;0.70;99.90
19680;DHT22;9989;48.962;9.182;2023-02-26T05:33:47;0.70;99.90
19680;DHT22;9989;48.962;9.182;2023-02-26T05:36:12;0.70;99.90
19680;DHT22;9989;48.962;9.182;2023-02-26T05:38:38;0.60;99.90
19680;DHT22;9989;48.962;9.182;2023-02-26T05:41:04;0.60;99.90
19680;DHT22;9989;48.962;9.182;2023-02-26T05:43:30;0.60;99.90
19680;DHT22;9989;48.962;9.182;2023-02-26T05:45:55;0.60;99.90
19680;DHT22;9989;48.962;9.182;2023-02-26T05:48:22;0.60;99.90
19680;DHT22;9989;48.962;9.182;2023-02-26T05:50:49;0.60;99.90
19680;DHT22;9989;48.962;9.182;2023-02-26T05:53:15;0.60;99.90
19680;DHT22;9989;48.962;9.182;2023-02-26T05:55:41;0.60;99.90
19680;DHT22;9989;48.962;9.182;2023-02-26T05:58:06;0.60;99.90
19680;DHT22;9989;48.962;9.182;2023-02-26T06:00:32;0.50;99.90
19680;DHT22;9989;48.962;9.182;2023-02-26T06:02:57;0.60;99.90
19680;DHT22;9989;48.962;9.182;2023-02-26T06:05:23;0.60;99.90
19680;DHT22;9989;48.962;9.182;2023-02-26T06:07:49;0.50;99.90
19680;DHT22;9989;48.962;9.182;2023-02-26T06:10:14;0.50;99.90
19680;DHT22;9989;48.962;9.182;2023-02-26T06:12:40;0.40;99.90
19680;DHT22;9989;48.962;9.182;2023-02-26T06:15:07;0.40;99.90
19680;DHT22;9989;48.962;9.182;2023-02-26T06:17:33;0.40;99.90
19680;DHT22;9989;48.962;9.182;2023-02-26T06:19:59;0.40;99.90
19680;DHT22;9989;48.962;9.182;2023-02-26T06:22:25;0.40;99.90
19680;DHT22;9989;48.962;9.182;2023-02-26T06:24:50;0.40;99.90
19680;DHT22;9989;48.962;9.182;2023-02-26T06:27:16;0.40;99.90
19680;DHT22;9989;48.962;9.182;2023-02-26T06:29:41;0.50;99.90
19680;DHT22;9989;48.962;9.182;2023-02-26T06:32:07;0.50;99.90
19680;DHT22;9989;48.962;9.182;2023-02-26T06:34:33;0.50;99.90
19680;DHT22;9989;48.962;9.182;2023-02-26T06:36:59;0.50;99.90
19680;DHT22;9989;48.962;9.182;2023-02-26T06:39:24;0.50;99.90
19680;DHT22;9989;48.962;9.182;2023-02-26T06:41:50;0.60;99.90
19680;DHT22;9989;48.962;9.182;2023-02-26T06:44:15;0.60;99.90
19680;DHT22;9989;48.962;9.182;2023-02-26T06:46:41;0.80;99.90
19680;DHT22;9989;48.962;9.182;2023-02-26T06:49:07;0.80;99.90
19680;DHT22;9989;48.962;9.182;2023-02-26T06:51:32;0.90;99.90
19680;DHT22;9989;48.962;9.182;2023-02-26T06:53:58;1.00;99.90
19680;DHT22;9989;48.962;9.182;2023-02-26T06:56:24;1.00;99.90
19680;DHT22;9989;48.962;9.182;2023-02-26T06:58:50;1.10;99.90
19680;DHT22;9989;48.962;9.182;2023-02-26T07:01:15;1.20;99.90
19680;DHT22;9989;48.962;9.182;2023-02-26T07:03:41;1.20;99.90
19680;DHT22;9989;48.962;9.182;2023-02-26T07:06:08;1.30;99.90
19680;DHT22;9989;48.962;9.182;2023-02-26T07:08:34;1.40;99.90
19680;DHT22;9989;48.962;9.182;2023-02-26T07:11:00;1.50;99.90
19680;DHT22;9989;48.962;9.182;2023-02-26T07:13:26;1.50;99.90
19680;DHT22;9989;48.962;9.182;2023-02-26T07:15:51;1.60;99.90
19680;DHT22;9989;48.962;9.182;2023-02-26T07:18:17;1.70;99.90
19680;DHT22;9989;48.962;9.182;2023-02-26T07:20:43;1.80;99.90
19680;DHT22;9989;48.962;9.182;2023-02-26T07:23:10;1.90;99.90
19680;DHT22;9989;48.962;9.182;2023-02-26T07:25:35;1.90;99.90
19680;DHT22;9989;48.962;9.182;2023-02-26T07:28:02;2.00;99.90
19680;DHT22;9989;48.962;9.182;2023-02-26T07:30:28;2.10;99.90
19680;DHT22;9989;48.962;9.182;2023-02-26T07:32:53;2.10;99.90
19680;DHT22;9989;48.962;9.182;2023-02-26T07:35:19;2.20;99.90
19680;DHT22;9989;48.962;9.182;2023-02-26T07:37:44;2.20;99.90
19680;DHT22;9989;48.962;9.182;2023-02-26T07:40:11;2.20;99.90
19680;DHT22;9989;48.962;9.182;2023-02-26T07:42:37;2.30;99.90
19680;DHT22;9989;48.962;9.182;2023-02-26T07:45:03;2.40;99.90
19680;DHT22;9989;48.962;9.182;2023-02-26T07:47:28;2.50;99.90
19680;DHT22;9989;48.962;9.182;2023-02-26T07:49:55;2.60;99.90
19680;DHT22;9989;48.962;9.182;2023-02-26T07:52:24;2.70;99.90
19680;DHT22;9989;48.962;9.182;2023-02-26T07:54:49;2.80;99.90
19680;DHT22;9989;48.962;9.182;2023-02-26T07:57:15;2.90;99.90
19680;DHT22;9989;48.962;9.182;2023-02-26T07:59:40;3.10;99.90
19680;DHT22;9989;48.962;9.182;2023-02-26T08:02:06;3.20;99.90
19680;DHT22;9989;48.962;9.182;2023-02-26T08:04:31;3.30;99.90
19680;DHT22;9989;48.962;9.182;2023-02-26T08:06:58;3.40;99.90
19680;DHT22;9989;48.962;9.182;2023-02-26T08:09:25;3.50;99.90
19680;DHT22;9989;48.962;9.182;2023-02-26T08:11:51;3.60;99.90
19680;DHT22;9989;48.962;9.182;2023-02-26T08:14:16;3.60;99.90
19680;DHT22;9989;48.962;9.182;2023-02-26T08:16:42;3.70;99.90
19680;DHT22;9989;48.962;9.182;2023-02-26T08:19:07;3.80;99.90
19680;DHT22;9989;48.962;9.182;2023-02-26T08:21:33;3.90;99.90
19680;DHT22;9989;48.962;9.182;2023-02-26T08:23:59;4.40;99.90
19680;DHT22;9989;48.962;9.182;2023-02-26T08:26:24;5.30;99.90
19680;DHT22;9989;48.962;9.182;2023-02-26T08:28:50;6.60;99.90
19680;DHT22;9989;48.962;9.182;2023-02-26T08:31:16;7.80;99.90
19680;DHT22;9989;48.962;9.182;2023-02-26T08:33:42;8.90;99.30
19680;DHT22;9989;48.962;9.182;2023-02-26T08:36:08;9.50;95.30
19680;DHT22;9989;48.962;9.182;2023-02-26T08:38:34;9.70;93.30
19680;DHT22;9989;48.962;9.182;2023-02-26T08:41:00;9.70;91.30
19680;DHT22;9989;48.962;9.182;2023-02-26T08:43:25;9.70;91.60
19680;DHT22;9989;48.962;9.182;2023-02-26T08:45:55;10.10;91.80
19680;DHT22;9989;48.962;9.182;2023-02-26T08:48:22;10.20;88.90
19680;DHT22;9989;48.962;9.182;2023-02-26T08:50:48;9.90;88.40
19680;DHT22;9989;48.962;9.182;2023-02-26T08:53:14;9.20;89.30
19680;DHT22;9989;48.962;9.182;2023-02-26T08:55:39;8.90;91.00
19680;DHT22;9989;48.962;9.182;2023-02-26T08:58:05;8.80;92.20
19680;DHT22;9989;48.962;9.182;2023-02-26T09:00:32;9.40;92.30
19680;DHT22;9989;48.962;9.182;2023-02-26T09:02:59;10.00;91.40
19680;DHT22;9989;48.962;9.182;2023-02-26T09:05:24;10.50;89.70
19680;DHT22;9989;48.962;9.182;2023-02-26T09:07:50;10.30;88.90
19680;DHT22;9989;48.962;9.182;2023-02-26T09:10:16;9.60;86.10
19680;DHT22;9989;48.962;9.182;2023-02-26T09:12:42;8.70;86.90
19680;DHT22;9989;48.962;9.182;2023-02-26T09:15:08;7.90;90.30
19680;DHT22;9989;48.962;9.182;2023-02-26T09:17:34;7.20;91.50
19680;DHT22;9989;48.962;9.182;2023-02-26T09:20:00;6.60;92.40
19680;DHT22;9989;48.962;9.182;2023-02-26T09:22:26;6.10;93.30
19680;DHT22;9989;48.962;9.182;2023-02-26T09:24:52;5.70;94.30
19680;DHT22;9989;48.962;9.182;2023-02-26T09:27:17;5.30;95.40
19680;DHT22;9989;48.962;9.182;2023-02-26T09:29:43;5.10;96.50
19680;DHT22;9989;48.962;9.182;2023-02-26T09:32:09;4.70;97.10
19680;DHT22;9989;48.962;9.182;2023-02-26T09:34:38;4.50;97.70
19680;DHT22;9989;48.962;9.182;2023-02-26T09:37:06;4.40;98.70
19680;DHT22;9989;48.962;9.182;2023-02-26T09:39:32;4.30;99.50
19680;DHT22;9989;48.962;9.182;2023-02-26T09:42:09;4.20;99.90
19680;DHT22;9989;48.962;9.182;2023-02-26T09:44:37;4.10;99.90
19680;DHT22;9989;48.962;9.182;2023-02-26T09:52:37;4.00;99.90
19680;DHT22;9989;48.962;9.182;2023-02-26T09:57:57;4.10;99.90
19680;DHT22;9989;48.962;9.182;2023-02-26T10:08:32;4.30;99.90
19680;DHT22;9989;48.962;9.182;2023-02-26T10:11:04;4.40;99.90
19680;DHT22;9989;48.962;9.182;2023-02-26T10:13:46;4.40;99.90
19680;DHT22;9989;48.962;9.182;2023-02-26T10:16:21;4.40;99.90
19680;DHT22;9989;48.962;9.182;2023-02-26T10:19:13;4.50;99.90
19680;DHT22;9989;48.962;9.182;2023-02-26T10:21:43;4.50;99.90
19680;DHT22;9989;48.962;9.182;2023-02-26T10:24:40;4.50;99.90
19680;DHT22;9989;48.962;9.182;2023-02-26T10:27:15;4.50;99.90
19680;DHT22;9989;48.962;9.182;2023-02-26T10:30:02;4.50;99.90
19680;DHT22;9989;48.962;9.182;2023-02-26T10:34:57;4.50;99.90
19680;DHT22;9989;48.962;9.182;2023-02-26T10:40:04;4.40;99.90
19680;DHT22;9989;48.962;9.182;2023-02-26T10:48:26;4.50;99.90
19680;DHT22;9989;48.962;9.182;2023-02-26T10:50:59;4.60;99.90
19680;DHT22;9989;48.962;9.182;2023-02-26T10:53:27;4.80;99.90
19680;DHT22;9989;48.962;9.182;2023-02-26T10:56:10;5.00;99.90
19680;DHT22;9989;48.962;9.182;2023-02-26T10:58:38;5.40;99.90
19680;DHT22;9989;48.962;9.182;2023-02-26T11:03:41;5.60;99.50
19680;DHT22;9989;48.962;9.182;2023-02-26T11:06:07;5.50;99.10
19680;DHT22;9989;48.962;9.182;2023-02-26T11:08:42;5.40;99.10
19680;DHT22;9989;48.962;9.182;2023-02-26T11:11:08;5.10;99.10
19680;DHT22;9989;48.962;9.182;2023-02-26T11:13:36;5.00;99.30
19680;DHT22;9989;48.962;9.182;2023-02-26T11:16:07;5.00;99.90
19680;DHT22;9989;48.962;9.182;2023-02-26T11:18:47;4.90;99.80
19680;DHT22;9989;48.962;9.182;2023-02-26T11:21:21;4.80;99.90
19680;DHT22;9989;48.962;9.182;2023-02-26T11:23:49;4.80;99.90
19680;DHT22;9989;48.962;9.182;2023-02-26T11:26:25;4.80;99.80
19680;DHT22;9989;48.962;9.182;2023-02-26T11:28:53;4.80;99.50
19680;DHT22;9989;48.962;9.182;2023-02-26T11:31:22;4.70;99.30
19680;DHT22;9989;48.962;9.182;2023-02-26T11:33:53;4.70;99.90
19680;DHT22;9989;48.962;9.182;2023-02-26T11:36:29;4.70;99.90
19680;DHT22;9989;48.962;9.182;2023-02-26T11:38:57;4.70;99.70
19680;DHT22;9989;48.962;9.182;2023-02-26T11:41:26;4.80;99.40
19680;DHT22;9989;48.962;9.182;2023-02-26T11:44:21;5.10;99.50
19680;DHT22;9989;48.962;9.182;2023-02-26T11:46:55;5.40;99.50
19680;DHT22;9989;48.962;9.182;2023-02-26T11:49:24;5.50;98.30
19680;DHT22;9989;48.962;9.182;2023-02-26T11:54:48;5.30;98.80
19680;DHT22;9989;48.962;9.182;2023-02-26T11:57:25;5.30;98.90
19680;DHT22;9989;48.962;9.182;2023-02-26T11:59:53;5.20;98.80
19680;DHT22;9989;48.962;9.182;2023-02-26T12:02:22;5.10;98.70
19680;DHT22;9989;48.962;9.182;2023-02-26T12:04:51;5.10;99.20
19680;DHT22;9989;48.962;9.182;2023-02-26T12:07:18;5.00;99.40
19680;DHT22;9989;48.962;9.182;2023-02-26T12:09:45;4.90;99.50
19680;DHT22;9989;48.962;9.182;2023-02-26T12:13:00;4.80;99.50
19680;DHT22;9989;48.962;9.182;2023-02-26T12:15:08;4.70;99.90
19680;DHT22;9989;48.962;9.182;2023-02-26T12:30:02;4.60;98.90
19680;DHT22;9989;48.962;9.182;2023-02-26T12:41:05;4.50;99.10
19680;DHT22;9989;48.962;9.182;2023-02-26T12:49:30;4.50;98.90
19680;DHT22;9989;48.962;9.182;2023-02-26T12:52:22;4.50;99.20
19680;DHT22;9989;48.962;9.182;2023-02-26T12:54:59;4.50;98.60
19680;DHT22;9989;48.962;9.182;2023-02-26T12:58:01;4.50;98.40
19680;DHT22;9989;48.962;9.182;2023-02-26T13:00:48;4.60;98.40
19680;DHT22;9989;48.962;9.182;2023-02-26T13:06:03;4.70;99.90
19680;DHT22;9989;48.962;9.182;2023-02-26T13:09:02;4.70;99.90
19680;DHT22;9989;48.962;9.182;2023-02-26T13:17:20;4.40;99.90
19680;DHT22;9989;48.962;9.182;2023-02-26T13:19:58;4.40;99.90
19680;DHT22;9989;48.962;9.182;2023-02-26T13:22:29;4.40;99.90
19680;DHT22;9989;48.962;9.182;2023-02-26T13:25:04;4.30;99.90
19680;DHT22;9989;48.962;9.182;2023-02-26T13:27:36;4.20;99.80
19680;DHT22;9989;48.962;9.182;2023-02-26T13:30:14;4.10;99.90
19680;DHT22;9989;48.962;9.182;2023-02-26T13:32:43;4.30;99.90
19680;DHT22;9989;48.962;9.182;2023-02-26T13:37:55;4.70;99.00
19680;DHT22;9989;48.962;9.182;2023-02-26T13:48:51;4.70;96.30
19680;DHT22;9989;48.962;9.182;2023-02-26T13:51:35;4.80;96.30
19680;DHT22;9989;48.962;9.182;2023-02-26T14:01:31;6.30;92.30
19680;DHT22;9989;48.962;9.182;2023-02-26T14:06:57;8.90;84.80
19680;DHT22;9989;48.962;9.182;2023-02-26T14:14:43;8.70;75.70
19680;DHT22;9989;48.962;9.182;2023-02-26T14:25:39;6.90;84.30
19680;DHT22;9989;48.962;9.182;2023-02-26T14:31:13;6.20;86.60
19680;DHT22;9989;48.962;9.182;2023-02-26T14:34:06;5.90;86.80
19680;DHT22;9989;48.962;9.182;2023-02-26T14:36:44;5.70;87.70
19680;DHT22;9989;48.962;9.182;2023-02-26T14:39:42;5.50;87.50
19680;DHT22;9989;48.962;9.182;2023-02-26T14:42:14;5.30;87.00
19680;DHT22;9989;48.962;9.182;2023-02-26T14:44:45;5.20;88.80
19680;DHT22;9989;48.962;9.182;2023-02-26T14:47:12;5.10;89.20
19680;DHT22;9989;48.962;9.182;2023-02-26T14:49:42;5.10;90.00
19680;DHT22;9989;48.962;9.182;2023-02-26T15:18:19;7.40;82.00
19680;DHT22;9989;48.962;9.182;2023-02-26T15:21:02;6.90;83.20
19680;DHT22;9989;48.962;9.182;2023-02-26T15:23:51;7.20;84.40
19680;DHT22;9989;48.962;9.182;2023-02-26T15:26:27;9.00;79.90
19680;DHT22;9989;48.962;9.182;2023-02-26T15:28:54;9.60;76.00
19680;DHT22;9989;48.962;9.182;2023-02-26T15:31:30;9.40;75.50
19680;DHT22;9989;48.962;9.182;2023-02-26T15:33:57;8.90;75.80
19680;DHT22;9989;48.962;9.182;2023-02-26T15:36:23;8.20;75.00
19680;DHT22;9989;48.962;9.182;2023-02-26T15:38:59;7.40;75.80
19680;DHT22;9989;48.962;9.182;2023-02-26T15:41:27;6.60;76.90
19680;DHT22;9989;48.962;9.182;2023-02-26T15:43:58;6.10;79.90
19680;DHT22;9989;48.962;9.182;2023-02-26T15:46:29;5.80;81.90
19680;DHT22;9989;48.962;9.182;2023-02-26T15:49:00;5.50;81.50
19680;DHT22;9989;48.962;9.182;2023-02-26T15:51:26;5.40;82.30
19680;DHT22;9989;48.962;9.182;2023-02-26T15:53:53;5.20;83.60
19680;DHT22;9989;48.962;9.182;2023-02-26T15:56:25;5.10;85.50
19680;DHT22;9989;48.962;9.182;2023-02-26T15:59:15;5.10;87.90
19680;DHT22;9989;48.962;9.182;2023-02-26T16:01:41;4.90;89.40
19680;DHT22;9989;48.962;9.182;2023-02-26T16:04:15;4.80;90.00
19680;DHT22;9989;48.962;9.182;2023-02-26T16:07:01;4.70;89.10
19680;DHT22;9989;48.962;9.182;2023-02-26T16:09:35;4.60;86.50
19680;DHT22;9989;48.962;9.182;2023-02-26T16:12:11;4.50;86.60
19680;DHT22;9989;48.962;9.182;2023-02-26T16:14:40;4.30;86.00
19680;DHT22;9989;48.962;9.182;2023-02-26T16:17:12;4.20;86.40
19680;DHT22;9989;48.962;9.182;2023-02-26T16:19:41;4.20;86.40
19680;DHT22;9989;48.962;9.182;2023-02-26T16:22:35;4.10;86.80
19680;DHT22;9989;48.962;9.182;2023-02-26T16:25:07;4.00;88.20
19680;DHT22;9989;48.962;9.182;2023-02-26T16:27:34;4.10;89.30
19680;DHT22;9989;48.962;9.182;2023-02-26T16:30:02;4.00;90.00
19680;DHT22;9989;48.962;9.182;2023-02-26T16:32:30;4.00;90.10
19680;DHT22;9989;48.962;9.182;2023-02-26T16:35:10;3.90;90.40
19680;DHT22;9989;48.962;9.182;2023-02-26T16:37:36;3.90;90.60
19680;DHT22;9989;48.962;9.182;2023-02-26T16:40:19;3.80;90.70
19680;DHT22;9989;48.962;9.182;2023-02-26T16:42:55;3.70;90.90
19680;DHT22;9989;48.962;9.182;2023-02-26T16:48:06;3.70;91.20
19680;DHT22;9989;48.962;9.182;2023-02-26T16:50:34;3.50;91.10
19680;DHT22;9989;48.962;9.182;2023-02-26T16:53:11;3.50;91.20
19680;DHT22;9989;48.962;9.182;2023-02-26T16:55:38;3.50;91.40
19680;DHT22;9989;48.962;9.182;2023-02-26T16:58:07;3.40;91.80
19680;DHT22;9989;48.962;9.182;2023-02-26T17:00:37;3.40;91.80
19680;DHT22;9989;48.962;9.182;2023-02-26T17:03:16;3.40;91.60
19680;DHT22;9989;48.962;9.182;2023-02-26T17:08:22;3.30;90.80
19680;DHT22;9989;48.962;9.182;2023-02-26T17:10:59;3.30;90.60
19680;DHT22;9989;48.962;9.182;2023-02-26T17:13:30;3.20;90.40
19680;DHT22;9989;48.962;9.182;2023-02-26T17:16:10;3.10;90.50
19680;DHT22;9989;48.962;9.182;2023-02-26T17:18:35;3.00;90.40
19680;DHT22;9989;48.962;9.182;2023-02-26T17:21:02;3.00;90.40
19680;DHT22;9989;48.962;9.182;2023-02-26T17:23:31;2.90;90.30
19680;DHT22;9989;48.962;9.182;2023-02-26T17:25:58;2.90;90.50
19680;DHT22;9989;48.962;9.182;2023-02-26T17:28:30;2.80;90.80
19680;DHT22;9989;48.962;9.182;2023-02-26T17:30:58;2.80;90.90
19680;DHT22;9989;48.962;9.182;2023-02-26T17:33:24;2.70;91.20
19680;DHT22;9989;48.962;9.182;2023-02-26T17:35:50;2.70;91.50
19680;DHT22;9989;48.962;9.182;2023-02-26T17:38:16;2.70;91.80
19680;DHT22;9989;48.962;9.182;2023-02-26T17:40:44;2.60;92.00
19680;DHT22;9989;48.962;9.182;2023-02-26T17:43:11;2.70;92.20
19680;DHT22;9989;48.962;9.182;2023-02-26T17:45:39;2.60;92.20
19680;DHT22;9989;48.962;9.182;2023-02-26T17:48:06;2.60;92.50
19680;DHT22;9989;48.962;9.182;2023-02-26T17:53:07;2.60;92.80
19680;DHT22;9989;48.962;9.182;2023-02-26T17:55:34;2.50;92.80
19680;DHT22;9989;48.962;9.182;2023-02-26T17:58:01;2.50;92.90
19680;DHT22;9989;48.962;9.182;2023-02-26T18:00:27;2.50;93.10
19680;DHT22;9989;48.962;9.182;2023-02-26T18:02:53;2.50;93.10
19680;DHT22;9989;48.962;9.182;2023-02-26T18:05:20;2.50;92.80
19680;DHT22;9989;48.962;9.182;2023-02-26T18:07:46;2.50;92.60
19680;DHT22;9989;48.962;9.182;2023-02-26T18:10:19;2.50;92.20
19680;DHT22;9989;48.962;9.182;2023-02-26T18:12:45;2.50;91.90
19680;DHT22;9989;48.962;9.182;2023-02-26T18:15:11;2.50;92.40
19680;DHT22;9989;48.962;9.182;2023-02-26T18:17:37;2.50;92.20
19680;DHT22;9989;48.962;9.182;2023-02-26T18:20:04;2.50;91.40
19680;DHT22;9989;48.962;9.182;2023-02-26T18:22:31;2.50;91.80
19680;DHT22;9989;48.962;9.182;2023-02-26T18:24:57;2.40;92.00
19680;DHT22;9989;48.962;9.182;2023-02-26T18:27:25;2.40;92.20
19680;DHT22;9989;48.962;9.182;2023-02-26T18:29:51;2.40;92.40
19680;DHT22;9989;48.962;9.182;2023-02-26T18:32:24;2.50;92.50
19680;DHT22;9989;48.962;9.182;2023-02-26T18:34:52;2.40;92.30
19680;DHT22;9989;48.962;9.182;2023-02-26T18:37:20;2.30;91.90
19680;DHT22;9989;48.962;9.182;2023-02-26T18:39:46;2.30;92.10
19680;DHT22;9989;48.962;9.182;2023-02-26T18:42:21;2.30;92.00
19680;DHT22;9989;48.962;9.182;2023-02-26T18:44:48;2.20;92.00
19680;DHT22;9989;48.962;9.182;2023-02-26T18:47:15;2.20;92.00
19680;DHT22;9989;48.962;9.182;2023-02-26T18:49:40;2.20;92.00
19680;DHT22;9989;48.962;9.182;2023-02-26T18:52:06;2.20;91.90
19680;DHT22;9989;48.962;9.182;2023-02-26T18:54:32;2.10;91.90
19680;DHT22;9989;48.962;9.182;2023-02-26T18:56:57;2.10;91.90
19680;DHT22;9989;48.962;9.182;2023-02-26T18:59:23;2.10;92.20
19680;DHT22;9989;48.962;9.182;2023-02-26T19:01:49;2.10;92.40
19680;DHT22;9989;48.962;9.182;2023-02-26T19:04:14;2.10;92.50
19680;DHT22;9989;48.962;9.182;2023-02-26T19:06:40;2.10;92.50
19680;DHT22;9989;48.962;9.182;2023-02-26T19:09:06;2.10;92.60
19680;DHT22;9989;48.962;9.182;2023-02-26T19:11:33;2.00;92.60
19680;DHT22;9989;48.962;9.182;2023-02-26T19:13:58;2.00;92.80
19680;DHT22;9989;48.962;9.182;2023-02-26T19:16:25;2.00;93.00
19680;DHT22;9989;48.962;9.182;2023-02-26T19:18:52;2.00;93.00